Time;durP1;ratioP1;P1;durP2;ratioP2;P2;SDS_P1;SDS_P2;PMS_P1;PMS_P2;Temp;Humidity;BMP_temperature;BMP_pressure;BME280_temperature;BME280_humidity;BME280_pressure;Samples;Min_cycle;Max_cycle;Signal;HPM_P1;HPM_P2
2022/06/09 00:00:24;;;;;;;8.90;7.90;;;;;;;17.01;77.65;99517.98;130163;1270;108675;-71
2022/06/09 00:03:44;;;;;;;10.40;7.70;;;;;;;17.00;77.53;99523.95;130206;1271;108657;-71
2022/06/09 00:06:53;;;;;;;8.70;7.50;;;;;;;16.99;77.57;99533.52;130167;1271;108816;-72
2022/06/09 00:10:03;;;;;;;8.90;6.90;;;;;;;16.98;77.66;99538.27;130145;1270;108704;-71
2022/06/09 00:13:09;;;;;;;10.00;7.90;;;;;;;16.99;77.76;99542.39;130168;1271;108644;-72
2022/06/09 00:16:14;;;;;;;9.00;8.10;;;;;;;17.01;77.78;99546.38;130209;1270;108711;-71
2022/06/09 00:19:20;;;;;;;9.10;7.60;;;;;;;17.04;77.91;99547.16;130170;1271;107699;-72
2022/06/09 00:22:26;;;;;;;10.90;7.90;;;;;;;17.03;77.85;99543.14;130172;1271;108634;-71
2022/06/09 00:25:31;;;;;;;12.10;9.40;;;;;;;16.96;77.94;99531.17;130166;1271;108730;-71
2022/06/09 00:28:37;;;;;;;8.70;7.80;;;;;;;16.89;78.28;99531.29;130126;1269;108808;-72
2022/06/09 00:31:42;;;;;;;8.10;6.90;;;;;;;16.94;78.42;99534.70;130195;1270;108698;-71
2022/06/09 00:34:48;;;;;;;11.50;8.30;;;;;;;17.01;78.34;99539.36;130050;1270;109004;-74
2022/06/09 00:37:53;;;;;;;10.70;7.00;;;;;;;17.05;78.29;99543.92;130189;1270;108672;-71
2022/06/09 00:41:02;;;;;;;10.30;7.70;;;;;;;17.09;78.19;99551.61;130011;1271;108658;-71
2022/06/09 00:44:19;;;;;;;7.50;6.50;;;;;;;17.13;78.32;99547.86;130101;1270;108652;-70
2022/06/09 00:47:28;;;;;;;9.30;6.40;;;;;;;17.15;78.29;99553.38;130090;1269;107719;-71
2022/06/09 00:50:34;;;;;;;7.30;6.30;;;;;;;17.17;78.56;99547.15;130016;1270;108674;-70
2022/06/09 00:53:41;;;;;;;8.70;6.80;;;;;;;17.24;78.32;99546.21;130186;1270;108673;-70
2022/06/09 00:56:50;;;;;;;7.90;6.80;;;;;;;17.31;78.33;99539.09;130073;1271;108687;-70
2022/06/09 01:00:01;;;;;;;8.50;7.60;;;;;;;17.34;78.45;99541.14;129828;1271;311006;-71
2022/06/09 01:03:08;;;;;;;9.80;7.80;;;;;;;17.36;78.46;99541.05;130020;1270;108759;-69
2022/06/09 01:06:20;;;;;;;8.40;7.20;;;;;;;17.33;78.58;99535.75;130035;1271;108855;-70
2022/06/09 01:09:27;;;;;;;7.60;6.80;;;;;;;17.31;78.72;99528.91;130070;1271;108760;-70
2022/06/09 01:12:37;;;;;;;8.90;7.70;;;;;;;17.32;78.71;99531.77;130041;1271;108737;-70
2022/06/09 01:15:58;;;;;;;10.60;8.90;;;;;;;17.37;78.81;99531.05;130157;1271;108735;-70
2022/06/09 01:19:20;;;;;;;9.10;7.90;;;;;;;17.42;78.84;99533.92;130053;1271;108689;-71
2022/06/09 01:22:51;;;;;;;8.40;7.30;;;;;;;17.39;78.73;99523.95;130175;1269;109320;-71
2022/06/09 01:26:16;;;;;;;10.80;9.30;;;;;;;17.36;78.87;99512.39;130009;1271;109103;-71
2022/06/09 01:29:31;;;;;;;10.80;8.80;;;;;;;17.27;79.04;99510.20;130197;1271;107029;-70
2022/06/09 01:32:41;;;;;;;10.20;8.70;;;;;;;17.22;79.24;99508.17;130063;1271;109488;-69
2022/06/09 01:35:53;;;;;;;10.50;8.70;;;;;;;17.28;79.50;99501.11;130080;1271;108586;-70
2022/06/09 01:39:02;;;;;;;10.00;9.00;;;;;;;17.34;79.34;99496.46;130117;1270;108644;-69
2022/06/09 01:42:25;;;;;;;11.20;9.40;;;;;;;17.33;79.43;99492.87;130107;1271;108760;-70
2022/06/09 01:45:41;;;;;;;10.40;9.30;;;;;;;17.32;79.53;99484.20;130109;1271;108771;-70
2022/06/09 01:48:47;;;;;;;9.70;8.70;;;;;;;17.27;79.68;99483.30;130167;1270;108110;-72
2022/06/09 01:51:55;;;;;;;7.60;6.80;;;;;;;17.29;79.79;99487.61;130042;1271;107674;-70
2022/06/09 01:55:02;;;;;;;9.60;7.50;;;;;;;17.31;79.65;99495.11;130094;1270;108968;-72
2022/06/09 01:58:11;;;;;;;7.70;7.00;;;;;;;17.30;79.67;99494.62;130046;1271;107702;-72
2022/06/09 02:01:20;;;;;;;7.90;7.10;;;;;;;17.33;79.68;99491.29;130210;1270;108977;-72
2022/06/09 02:04:36;;;;;;;8.90;8.00;;;;;;;17.31;79.69;99484.70;130162;1271;108788;-72
2022/06/09 02:07:44;;;;;;;7.70;6.90;;;;;;;17.22;79.83;99492.55;130207;1269;108745;-73
2022/06/09 02:10:55;;;;;;;9.40;7.20;;;;;;;17.23;79.91;99488.27;130243;1271;109571;-72
2022/06/09 02:14:01;;;;;;;8.20;7.40;;;;;;;17.27;79.96;99493.05;130061;1271;108721;-72
2022/06/09 02:17:08;;;;;;;9.90;8.60;;;;;;;17.32;79.96;99489.52;130219;1269;107698;-71
2022/06/09 02:20:15;;;;;;;10.70;9.60;;;;;;;17.34;79.87;99482.73;130240;1271;108693;-71
2022/06/09 02:23:21;;;;;;;10.20;8.60;;;;;;;17.34;79.87;99480.66;130222;1269;108761;-72
2022/06/09 02:26:26;;;;;;;11.30;7.50;;;;;;;17.26;79.97;99483.31;130076;1271;108146;-72
2022/06/09 02:29:32;;;;;;;9.00;8.10;;;;;;;17.25;80.08;99473.70;130181;1271;108093;-73
2022/06/09 02:32:37;;;;;;;9.20;8.30;;;;;;;17.29;80.13;99464.09;130230;1271;108680;-72
2022/06/09 02:35:43;;;;;;;11.00;8.60;;;;;;;17.34;80.19;99461.45;130207;1270;108672;-72
2022/06/09 02:38:49;;;;;;;12.40;11.00;;;;;;;17.39;80.24;99457.11;130222;1269;107646;-71
2022/06/09 02:41:54;;;;;;;11.40;10.10;;;;;;;17.35;80.17;99445.05;130195;1270;108739;-72
2022/06/09 02:44:59;;;;;;;10.30;9.10;;;;;;;17.28;80.39;99454.09;130167;1270;108674;-72
2022/06/09 02:48:06;;;;;;;10.20;9.00;;;;;;;17.29;80.55;99458.91;130202;1271;108527;-73
2022/06/09 02:51:23;;;;;;;11.30;9.20;;;;;;;17.32;80.59;99458.23;130198;1271;109148;-72
2022/06/09 02:54:28;;;;;;;10.90;9.70;;;;;;;17.37;80.54;99456.99;130225;1271;108776;-73
2022/06/09 02:57:33;;;;;;;11.10;9.90;;;;;;;17.38;80.56;99453.38;130456;1271;108684;-72
2022/06/09 03:00:39;;;;;;;12.40;9.30;;;;;;;17.38;80.66;99450.17;130180;1271;108717;-73
2022/06/09 03:03:45;;;;;;;12.00;10.70;;;;;;;17.39;80.72;99449.14;130156;1271;108708;-73
2022/06/09 03:06:50;;;;;;;12.80;11.10;;;;;;;17.42;80.76;99441.09;130290;1271;108856;-72
2022/06/09 03:09:55;;;;;;;11.50;10.30;;;;;;;17.46;80.92;99438.22;130203;1270;108560;-72
2022/06/09 03:13:00;;;;;;;11.40;9.30;;;;;;;17.51;80.98;99446.95;130254;1271;108680;-73
2022/06/09 03:16:07;;;;;;;10.40;9.30;;;;;;;17.55;80.90;99439.41;130136;1270;108930;-72
2022/06/09 03:19:12;;;;;;;11.30;10.00;;;;;;;17.56;80.84;99432.55;130173;1270;108654;-72
2022/06/09 03:22:18;;;;;;;11.80;8.40;;;;;;;17.60;80.90;99432.46;130132;1271;108743;-72
2022/06/09 03:25:24;;;;;;;9.90;8.60;;;;;;;17.65;80.71;99434.14;130095;1271;108795;-72
2022/06/09 03:28:30;;;;;;;11.90;9.40;;;;;;;17.71;80.73;99426.38;130167;1271;107735;-73
2022/06/09 03:31:35;;;;;;;10.60;9.50;;;;;;;17.78;80.67;99426.65;130151;1271;108615;-72
2022/06/09 03:34:41;;;;;;;11.20;10.10;;;;;;;17.84;80.70;99429.44;130166;1271;108762;-74
2022/06/09 03:37:46;;;;;;;12.50;8.70;;;;;;;17.90;80.63;99433.39;130152;1270;108702;-72
2022/06/09 03:40:51;;;;;;;10.30;9.10;;;;;;;17.91;80.57;99431.67;130171;1271;108425;-71
2022/06/09 03:43:56;;;;;;;12.30;11.00;;;;;;;17.92;80.42;99433.98;130099;1271;108707;-72
2022/06/09 03:47:01;;;;;;;11.40;9.70;;;;;;;17.93;80.55;99439.46;130130;1271;108702;-72
2022/06/09 03:50:14;;;;;;;10.60;9.50;;;;;;;17.98;80.41;99440.46;130138;1271;108929;-72
2022/06/09 03:53:20;;;;;;;12.70;10.00;;;;;;;18.06;80.36;99444.38;130120;1271;108767;-72
2022/06/09 03:56:25;;;;;;;10.90;9.10;;;;;;;18.18;80.46;99449.29;130190;1271;108871;-69
2022/06/09 03:59:30;;;;;;;18.90;10.80;;;;;;;18.37;80.42;99441.61;130017;1271;109503;-72
2022/06/09 04:02:36;;;;;;;10.80;9.50;;;;;;;18.57;80.26;99430.42;130058;1271;108661;-70
2022/06/09 04:05:41;;;;;;;10.80;9.40;;;;;;;18.75;80.27;99429.09;130029;1271;108665;-69
2022/06/09 04:08:47;;;;;;;11.50;10.30;;;;;;;19.03;80.24;99433.04;129983;1271;108796;-69
2022/06/09 04:11:52;;;;;;;15.20;12.70;;;;;;;19.31;80.32;99433.41;129876;1271;108728;-71
2022/06/09 04:14:57;;;;;;;16.80;12.90;;;;;;;19.56;80.12;99431.98;129965;1270;108690;-70
2022/06/09 04:18:04;;;;;;;15.10;13.50;;;;;;;19.83;80.12;99426.72;129968;1270;108718;-68
2022/06/09 04:21:09;;;;;;;14.40;12.90;;;;;;;20.10;79.97;99419.88;130064;1270;108689;-68
2022/06/09 04:24:14;;;;;;;14.00;12.40;;;;;;;20.35;79.92;99418.70;129968;1271;108974;-70
2022/06/09 04:27:20;;;;;;;15.90;14.30;;;;;;;20.59;79.79;99423.51;130207;1271;108790;-72
2022/06/09 04:30:25;;;;;;;15.10;13.50;;;;;;;20.83;79.82;99428.79;130225;1271;108719;-71
2022/06/09 04:33:30;;;;;;;13.70;10.80;;;;;;;21.08;79.33;99435.67;130054;1270;108826;-71
2022/06/09 04:36:35;;;;;;;12.10;10.80;;;;;;;21.31;79.27;99437.77;130048;1270;108714;-71
2022/06/09 04:39:42;;;;;;;13.20;11.90;;;;;;;21.48;78.87;99438.30;129996;1270;108668;-69
2022/06/09 04:42:48;;;;;;;13.10;11.80;;;;;;;21.63;78.70;99433.36;130008;1270;109435;-70
2022/06/09 04:45:53;;;;;;;14.10;12.60;;;;;;;21.82;78.46;99433.30;130038;1270;108469;-70
2022/06/09 04:48:59;;;;;;;13.90;12.60;;;;;;;22.10;78.15;99433.19;129971;1270;108822;-70
2022/06/09 04:52:04;;;;;;;12.00;10.80;;;;;;;22.26;77.81;99441.27;129995;1270;108721;-72
2022/06/09 04:55:11;;;;;;;13.10;11.80;;;;;;;22.24;77.38;99453.55;130067;1271;108703;-74
2022/06/09 04:58:16;;;;;;;14.50;12.40;;;;;;;22.17;77.39;99480.98;130286;1271;108709;-73
2022/06/09 05:01:25;;;;;;;14.40;12.90;;;;;;;22.12;77.69;99523.46;130164;1271;108656;-73
2022/06/09 05:04:30;;;;;;;14.70;13.20;;;;;;;21.96;77.57;99519.02;130057;1271;108784;-72
2022/06/09 05:07:35;;;;;;;13.90;12.60;;;;;;;21.79;77.64;99491.52;130235;1271;108583;-73
2022/06/09 05:10:42;;;;;;;14.40;12.90;;;;;;;21.72;77.66;99506.33;130171;1270;108826;-72
2022/06/09 05:13:47;;;;;;;14.50;13.10;;;;;;;21.66;77.70;99512.73;130088;1271;108798;-72
2022/06/09 05:16:53;;;;;;;13.90;12.50;;;;;;;21.56;77.74;99506.54;130084;1271;108849;-71
2022/06/09 05:19:58;;;;;;;13.30;11.90;;;;;;;21.59;77.65;99490.97;130108;1271;108645;-72
2022/06/09 05:23:04;;;;;;;15.30;13.80;;;;;;;21.81;77.80;99496.76;130153;1269;108516;-71
2022/06/09 05:26:09;;;;;;;15.80;13.80;;;;;;;22.08;77.52;99498.84;130027;1271;108777;-71
2022/06/09 05:29:15;;;;;;;14.30;12.90;;;;;;;22.34;77.35;99497.70;129993;1270;108683;-71
2022/06/09 05:32:21;;;;;;;14.60;13.20;;;;;;;22.58;77.05;99498.14;130101;1270;109149;-72
2022/06/09 05:35:27;;;;;;;14.30;13.00;;;;;;;22.74;77.07;99497.66;130203;1271;108617;-73
2022/06/09 05:45:18;;;;;;;15.00;13.60;;;;;;;22.91;76.08;99488.94;130132;1269;108687;-71
2022/06/09 05:48:23;;;;;;;14.50;13.10;;;;;;;22.91;75.85;99476.50;130209;1270;108900;-70
2022/06/09 05:51:29;;;;;;;14.80;13.30;;;;;;;22.90;75.89;99481.70;130127;1270;108738;-71
2022/06/09 05:54:34;;;;;;;15.40;13.40;;;;;;;22.88;75.44;99486.36;130073;1271;108835;-71
2022/06/09 05:57:39;;;;;;;17.90;16.10;;;;;;;22.81;75.52;99476.98;130232;1271;108849;-69
2022/06/09 06:00:45;;;;;;;16.60;14.90;;;;;;;22.79;74.86;99474.80;130053;1270;108727;-72
2022/06/09 06:03:50;;;;;;;14.70;13.40;;;;;;;22.70;74.90;99469.75;130124;1271;108718;-70
2022/06/09 06:06:56;;;;;;;14.10;12.80;;;;;;;22.79;75.23;99470.25;129968;1271;108448;-71
2022/06/09 06:10:01;;;;;;;14.20;12.90;;;;;;;23.00;75.21;99477.42;130221;1271;108707;-71
2022/06/09 06:13:06;;;;;;;16.00;14.50;;;;;;;23.13;74.73;99474.56;129924;1271;108741;-70
2022/06/09 06:16:12;;;;;;;16.20;14.60;;;;;;;23.26;74.54;99467.45;129759;1271;108649;-71
2022/06/09 06:19:19;;;;;;;16.20;14.70;;;;;;;23.42;74.25;99473.33;130219;1269;109031;-71
2022/06/09 06:22:24;;;;;;;15.80;14.30;;;;;;;23.53;74.15;99477.15;130099;1271;108767;-70
2022/06/09 06:25:29;;;;;;;16.70;15.10;;;;;;;23.68;73.84;99470.53;130128;1271;108691;-71
2022/06/09 06:28:35;;;;;;;16.70;15.00;;;;;;;23.83;73.72;99466.27;130159;1270;108676;-71
2022/06/09 06:31:40;;;;;;;15.80;14.30;;;;;;;23.94;73.49;99468.81;130179;1271;108296;-70
2022/06/09 06:34:45;;;;;;;16.00;14.00;;;;;;;24.01;73.25;99464.33;130025;1271;108747;-71
2022/06/09 06:37:50;;;;;;;14.90;13.50;;;;;;;23.99;73.01;99462.60;130014;1271;108694;-71
2022/06/09 06:40:56;;;;;;;16.40;14.60;;;;;;;24.05;72.88;99457.23;130196;1271;107269;-70
2022/06/09 06:44:01;;;;;;;17.40;15.70;;;;;;;24.12;72.57;99453.85;130172;1271;108805;-71
2022/06/09 06:47:07;;;;;;;17.20;15.50;;;;;;;24.16;72.48;99453.22;130179;1269;108742;-70
2022/06/09 06:50:14;;;;;;;16.30;14.70;;;;;;;24.18;72.36;99450.40;130071;1271;108103;-70
2022/06/09 06:53:19;;;;;;;16.20;14.70;;;;;;;24.09;71.90;99447.71;130083;1271;108775;-70
2022/06/09 06:56:25;;;;;;;15.40;14.00;;;;;;;23.95;72.20;99450.13;130013;1271;109009;-70
2022/06/09 06:59:30;;;;;;;15.50;13.90;;;;;;;23.91;72.25;99450.65;130064;1271;108962;-70
2022/06/09 07:02:35;;;;;;;16.80;15.10;;;;;;;23.78;72.16;99447.97;130081;1271;108745;-70
2022/06/09 07:05:41;;;;;;;20.00;17.90;;;;;;;23.62;72.40;99446.13;130039;1271;108864;-70
2022/06/09 07:08:46;;;;;;;20.40;17.30;;;;;;;23.49;72.62;99444.10;130116;1271;108684;-70
2022/06/09 07:11:51;;;;;;;17.90;16.10;;;;;;;23.46;72.67;99440.96;130014;1271;108692;-72
2022/06/09 07:14:57;;;;;;;18.30;16.30;;;;;;;23.52;72.26;99441.52;130081;1271;108819;-74
2022/06/09 07:18:02;;;;;;;19.90;17.50;;;;;;;23.65;71.93;99442.05;130143;1271;107696;-75
2022/06/09 07:21:08;;;;;;;17.50;15.70;;;;;;;23.81;71.94;99443.27;130141;1271;108521;-73
2022/06/09 07:24:14;;;;;;;18.40;16.50;;;;;;;24.14;71.98;99440.94;130107;1271;109489;-73
2022/06/09 07:27:19;;;;;;;16.90;15.10;;;;;;;24.49;71.35;99439.47;130178;1271;108707;-74
2022/06/09 07:30:28;;;;;;;14.60;13.20;;;;;;;24.70;71.13;99439.14;130171;1271;107418;-74
2022/06/09 07:33:36;;;;;;;11.70;10.70;;;;;;;24.96;70.80;99435.91;130174;1271;108687;-73
2022/06/09 07:36:43;;;;;;;9.20;8.30;;;;;;;25.27;69.70;99437.86;130114;1271;108672;-79
2022/06/09 07:39:48;;;;;;;12.20;11.10;;;;;;;25.52;68.30;99437.20;130234;1270;108920;-82
2022/06/09 07:42:54;;;;;;;12.40;11.20;;;;;;;25.68;69.46;99440.38;130147;1271;107713;-81
2022/06/09 07:45:59;;;;;;;8.60;7.90;;;;;;;25.95;68.64;99441.10;130001;1271;107740;-77
2022/06/09 07:49:06;;;;;;;7.90;7.20;;;;;;;26.15;67.72;99448.80;130181;1271;108690;-78
2022/06/09 07:52:12;;;;;;;7.00;6.40;;;;;;;26.23;66.28;99449.60;130196;1271;108746;-79
2022/06/09 07:55:22;;;;;;;9.50;8.00;;;;;;;26.24;65.84;99446.77;130202;1271;109166;-78
2022/06/09 07:58:27;;;;;;;8.30;7.60;;;;;;;26.09;65.62;99447.77;130110;1270;108742;-77
2022/06/09 08:01:33;;;;;;;9.80;8.90;;;;;;;26.05;66.21;99447.94;130131;1271;108742;-78
2022/06/09 08:04:39;;;;;;;12.20;9.30;;;;;;;25.97;65.23;99451.23;130048;1271;108811;-78
2022/06/09 08:07:45;;;;;;;8.70;7.90;;;;;;;25.83;65.02;99449.29;130053;1271;108105;-77
2022/06/09 08:10:50;;;;;;;9.20;8.40;;;;;;;25.71;65.42;99456.55;130087;1271;108764;-79
2022/06/09 08:13:56;;;;;;;10.70;9.70;;;;;;;25.63;65.93;99465.61;130055;1271;108721;-77
2022/06/09 08:17:02;;;;;;;12.80;11.70;;;;;;;25.56;66.05;99466.38;130093;1270;108508;-77
2022/06/09 08:20:10;;;;;;;13.50;12.30;;;;;;;25.53;66.55;99468.67;130023;1271;107659;-78
2022/06/09 08:23:18;;;;;;;13.70;12.60;;;;;;;25.51;66.66;99468.61;130074;1271;108841;-78
2022/06/09 08:30:33;;;;;;;14.20;12.80;;;;;;;25.61;66.87;99471.64;130123;1271;108799;-75
2022/06/09 08:33:38;;;;;;;14.80;13.10;;;;;;;25.69;66.82;99476.00;130097;1271;108685;-79
2022/06/09 08:36:44;;;;;;;15.30;13.80;;;;;;;25.74;66.53;99474.48;130099;1271;107785;-79
2022/06/09 08:39:50;;;;;;;15.80;14.30;;;;;;;25.83;66.20;99477.86;130063;1271;108767;-78
2022/06/09 08:43:24;;;;;;;15.70;14.30;;;;;;;25.81;66.26;99474.37;130056;1271;108585;-78
2022/06/09 08:46:43;;;;;;;14.90;13.60;;;;;;;25.88;66.05;99475.31;130120;1271;108839;-78
2022/06/09 08:49:57;;;;;;;14.00;12.70;;;;;;;26.05;65.48;99468.70;130098;1271;108667;-77
2022/06/09 08:53:08;;;;;;;12.80;11.70;;;;;;;26.13;65.39;99464.55;130088;1271;108852;-76
2022/06/09 08:56:21;;;;;;;12.70;11.50;;;;;;;26.09;65.10;99457.67;130169;1271;107646;-77
2022/06/09 08:59:30;;;;;;;11.10;10.20;;;;;;;25.93;64.72;99458.98;130126;1271;108796;-77
2022/06/09 09:02:40;;;;;;;11.30;10.20;;;;;;;25.77;64.30;99465.69;130128;1271;108687;-77
2022/06/09 09:05:48;;;;;;;12.20;11.10;;;;;;;25.80;64.35;99466.11;130303;1271;108998;-72
2022/06/09 09:09:13;;;;;;;12.40;11.30;;;;;;;25.71;64.41;99468.08;130232;1271;108873;-72
2022/06/09 09:12:24;;;;;;;11.90;10.90;;;;;;;25.69;64.55;99469.99;130134;1271;108559;-74
2022/06/09 09:15:34;;;;;;;12.00;10.90;;;;;;;25.70;64.68;99473.48;130170;1271;108868;-73
2022/06/09 09:18:45;;;;;;;14.00;12.80;;;;;;;25.79;64.42;99472.52;130165;1271;108657;-72
2022/06/09 09:22:01;;;;;;;13.60;12.30;;;;;;;25.89;63.78;99469.34;130179;1270;108802;-72
2022/06/09 09:25:16;;;;;;;13.60;12.40;;;;;;;26.03;64.35;99464.83;130172;1271;108655;-73
2022/06/09 09:28:27;;;;;;;13.50;12.30;;;;;;;26.28;64.40;99460.64;130237;1271;108728;-72
2022/06/09 09:31:44;;;;;;;14.10;12.90;;;;;;;26.52;64.06;99453.80;130171;1271;108798;-72
2022/06/09 09:34:51;;;;;;;14.00;12.70;;;;;;;26.70;63.47;99452.45;130213;1271;110236;-73
2022/06/09 09:37:59;;;;;;;13.40;12.20;;;;;;;26.88;62.72;99456.36;130187;1270;108704;-71
2022/06/09 09:41:05;;;;;;;14.40;12.90;;;;;;;26.95;62.40;99456.02;130172;1271;108720;-72
2022/06/09 09:44:19;;;;;;;14.80;13.50;;;;;;;26.93;62.39;99457.77;130172;1271;107752;-74
2022/06/09 09:47:29;;;;;;;12.50;11.30;;;;;;;26.80;61.96;99458.60;130186;1270;108730;-74
2022/06/09 09:50:48;;;;;;;14.90;13.50;;;;;;;26.83;62.12;99457.70;130258;1271;108996;-74
2022/06/09 09:53:58;;;;;;;16.50;15.10;;;;;;;26.71;61.48;99456.50;130125;1271;108654;-74
2022/06/09 09:57:19;;;;;;;17.20;15.60;;;;;;;26.57;62.21;99457.83;130115;1271;108702;-72
2022/06/09 10:00:29;;;;;;;14.50;13.30;;;;;;;26.58;62.76;99457.95;130160;1271;108840;-73
2022/06/09 10:10:32;;;;;;;16.60;15.10;;;;;;;26.81;62.35;99462.92;130309;1271;108710;-75
2022/06/09 10:13:37;;;;;;;15.40;14.00;;;;;;;26.80;61.26;99463.41;130235;1271;108668;-73
2022/06/09 10:16:49;;;;;;;16.60;15.10;;;;;;;26.65;62.21;99463.03;130128;1271;108730;-72
2022/06/09 10:20:04;;;;;;;14.40;13.00;;;;;;;26.63;61.48;99460.30;130121;1271;108733;-72
2022/06/09 10:23:41;;;;;;;11.60;10.50;;;;;;;26.61;60.48;99465.89;130075;1271;108694;-72
2022/06/09 10:26:51;;;;;;;11.40;10.40;;;;;;;26.78;60.57;99464.63;129708;1271;108482;-72
2022/06/09 10:30:03;;;;;;;11.40;10.40;;;;;;;27.14;61.34;99466.00;130019;1271;108726;-74
2022/06/09 10:33:21;;;;;;;12.20;11.20;;;;;;;27.27;59.05;99473.02;129955;1271;108709;-73
2022/06/09 10:36:37;;;;;;;17.40;15.80;;;;;;;27.25;60.04;99477.34;129991;1271;108663;-73
2022/06/09 10:39:50;;;;;;;11.00;10.10;;;;;;;27.26;58.68;99471.86;130007;1271;109097;-73
2022/06/09 10:43:03;;;;;;;10.50;9.60;;;;;;;26.99;57.59;99470.17;129986;1271;108659;-73
2022/06/09 10:46:20;;;;;;;10.00;9.00;;;;;;;26.77;59.15;99471.09;129996;1271;107574;-73
2022/06/09 10:56:25;;;;;;;8.10;7.40;;;;;;;26.60;59.48;99478.91;130000;1270;108624;-72
2022/06/09 10:59:38;;;;;;;8.30;7.60;;;;;;;26.62;58.78;99480.34;130015;1271;108504;-73
2022/06/09 11:02:47;;;;;;;9.10;8.30;;;;;;;26.82;58.90;99471.89;130010;1271;108735;-72
2022/06/09 11:06:11;;;;;;;10.10;8.20;;;;;;;27.06;58.80;99474.86;130209;1271;108718;-73
2022/06/09 11:09:29;;;;;;;9.40;8.60;;;;;;;27.30;58.63;99473.33;130195;1270;108543;-73
2022/06/09 11:12:47;;;;;;;9.20;8.30;;;;;;;27.36;57.83;99466.73;130196;1271;109625;-73
2022/06/09 11:16:01;;;;;;;8.10;7.30;;;;;;;27.26;57.82;99462.55;130189;1271;108777;-72
2022/06/09 11:19:26;;;;;;;8.00;7.20;;;;;;;27.25;57.92;99458.98;130191;1271;108741;-72
2022/06/09 11:22:41;;;;;;;8.10;7.30;;;;;;;27.18;57.69;99450.63;130171;1271;108687;-72
2022/06/09 11:25:58;;;;;;;8.10;7.30;;;;;;;27.08;57.37;99440.11;130179;1271;108752;-72
2022/06/09 11:29:15;;;;;;;8.10;7.30;;;;;;;27.01;57.85;99438.45;130204;1271;109032;-74
2022/06/09 11:32:29;;;;;;;8.50;7.80;;;;;;;26.87;56.75;99432.95;130170;1271;107252;-73
2022/06/09 11:35:48;;;;;;;8.60;7.80;;;;;;;26.70;57.39;99434.66;130199;1271;108660;-75
2022/06/09 11:39:01;;;;;;;8.60;7.80;;;;;;;26.63;57.35;99436.55;130153;1271;108517;-74
2022/06/09 11:42:19;;;;;;;8.40;7.70;;;;;;;26.52;57.18;99434.86;130182;1271;108656;-73
2022/06/09 11:45:31;;;;;;;9.50;8.70;;;;;;;26.42;57.59;99426.84;130242;1271;108605;-73
2022/06/09 11:48:41;;;;;;;9.50;8.70;;;;;;;26.27;57.83;99434.81;130197;1271;108680;-74
2022/06/09 11:51:48;;;;;;;10.10;9.20;;;;;;;26.27;58.21;99434.71;130169;1271;108737;-74
2022/06/09 11:55:04;;;;;;;10.40;9.60;;;;;;;26.27;58.25;99437.63;130256;1271;108732;-73
2022/06/09 11:58:10;;;;;;;9.80;9.00;;;;;;;26.16;57.78;99429.98;130196;1271;108805;-73
2022/06/09 12:01:37;;;;;;;10.60;9.70;;;;;;;26.11;58.05;99421.58;130129;1271;108545;-73
2022/06/09 12:05:16;;;;;;;9.90;9.00;;;;;;;26.04;58.18;99418.91;129918;1271;108726;-76
2022/06/09 12:08:32;;;;;;;11.70;10.60;;;;;;;25.97;57.48;99419.13;130186;1271;108799;-73
2022/06/09 12:11:58;;;;;;;10.50;9.60;;;;;;;25.89;58.24;99419.34;130162;1270;109008;-74
2022/06/09 12:15:25;;;;;;;11.20;10.20;;;;;;;25.98;58.25;99420.56;130157;1271;107033;-75
2022/06/09 12:18:59;;;;;;;10.90;9.90;;;;;;;26.04;58.40;99421.81;130161;1271;108003;-74
2022/06/09 12:22:47;;;;;;;10.50;9.40;;;;;;;26.09;58.14;99424.02;130158;1271;109126;-75
2022/06/09 12:26:26;;;;;;;9.70;8.80;;;;;;;25.99;58.61;99426.19;130069;1271;108701;-75
2022/06/09 12:29:47;;;;;;;10.50;9.60;;;;;;;26.00;58.60;99435.20;130164;1271;108664;-75
2022/06/09 12:32:55;;;;;;;9.90;9.00;;;;;;;26.01;58.84;99435.36;130119;1271;108719;-75
2022/06/09 12:36:05;;;;;;;11.10;10.00;;;;;;;25.98;59.03;99432.96;130194;1271;108740;-75
2022/06/09 12:39:20;;;;;;;11.30;10.30;;;;;;;25.92;58.73;99432.24;130167;1271;108956;-75
2022/06/09 12:42:28;;;;;;;11.90;10.80;;;;;;;25.84;58.84;99430.58;130192;1271;108688;-76
2022/06/09 12:45:36;;;;;;;11.20;10.10;;;;;;;25.78;59.10;99429.83;130183;1271;108817;-76
2022/06/09 12:48:42;;;;;;;11.40;10.40;;;;;;;25.73;59.26;99434.05;130193;1271;108804;-75
2022/06/09 12:51:47;;;;;;;11.40;10.20;;;;;;;25.67;59.24;99446.50;130205;1270;108860;-76
2022/06/09 12:54:59;;;;;;;13.00;11.80;;;;;;;25.62;59.45;99448.56;130169;1271;108571;-76
2022/06/09 12:58:17;;;;;;;12.40;11.20;;;;;;;25.63;59.66;99456.61;130194;1271;108844;-75
2022/06/09 13:01:25;;;;;;;10.80;9.90;;;;;;;25.47;59.90;99453.27;130017;1270;238724;-75
2022/06/09 13:04:33;;;;;;;10.90;9.90;;;;;;;25.33;60.20;99446.20;130169;1271;108724;-75
2022/06/09 13:07:48;;;;;;;10.80;9.80;;;;;;;25.25;60.73;99444.36;130208;1270;107802;-75
2022/06/09 13:11:00;;;;;;;10.90;9.80;;;;;;;25.14;60.98;99450.27;130219;1271;108668;-74
2022/06/09 13:14:05;;;;;;;11.00;9.90;;;;;;;25.05;61.15;99451.50;130343;1271;108605;-78
2022/06/09 13:17:16;;;;;;;11.20;10.10;;;;;;;24.99;61.32;99454.10;130251;1269;108932;-73
2022/06/09 13:20:26;;;;;;;11.90;10.60;;;;;;;24.94;61.48;99448.90;130123;1271;108815;-73
2022/06/09 13:23:33;;;;;;;10.90;9.90;;;;;;;24.78;61.47;99446.33;130192;1271;108697;-72
2022/06/09 13:26:43;;;;;;;10.90;10.00;;;;;;;24.60;61.89;99450.34;130275;1271;108916;-72
2022/06/09 13:29:59;;;;;;;10.80;9.70;;;;;;;24.44;62.19;99454.91;130247;1271;108323;-74
2022/06/09 13:33:18;;;;;;;10.60;9.50;;;;;;;24.33;62.47;99445.74;130221;1269;108659;-75
2022/06/09 13:36:32;;;;;;;10.80;9.70;;;;;;;24.26;62.65;99444.77;130191;1269;108342;-73
2022/06/09 13:39:44;;;;;;;10.40;9.50;;;;;;;24.26;62.74;99447.02;130229;1270;108814;-75
2022/06/09 13:42:53;;;;;;;11.60;10.50;;;;;;;24.27;63.06;99444.30;130207;1271;108745;-76
2022/06/09 13:46:16;;;;;;;11.60;10.50;;;;;;;24.26;63.17;99439.83;130208;1269;108721;-74
2022/06/09 13:49:25;;;;;;;13.60;10.90;;;;;;;24.25;63.17;99443.67;130232;1268;108671;-72
2022/06/09 13:52:35;;;;;;;15.10;13.60;;;;;;;24.27;63.44;99437.30;130270;1269;108949;-73
2022/06/09 13:55:40;;;;;;;25.40;22.60;;;;;;;24.30;63.56;99432.85;130221;1270;107741;-75
2022/06/09 13:58:46;;;;;;;18.30;16.10;;;;;;;24.33;63.79;99435.92;130277;1269;108807;-74
2022/06/09 14:01:53;;;;;;;15.90;14.30;;;;;;;24.36;63.94;99442.55;130212;1271;108767;-75
2022/06/09 14:04:59;;;;;;;12.50;11.20;;;;;;;24.41;63.62;99446.94;130266;1270;108850;-74
2022/06/09 14:08:05;;;;;;;11.90;10.90;;;;;;;24.50;63.60;99449.72;130218;1271;107008;-75
2022/06/09 14:11:16;;;;;;;11.70;10.50;;;;;;;24.61;63.36;99452.52;130244;1270;108464;-78
2022/06/09 14:14:21;;;;;;;11.10;10.10;;;;;;;24.65;63.19;99460.58;130254;1270;107224;-76
2022/06/09 14:17:29;;;;;;;11.70;10.70;;;;;;;24.73;63.38;99467.26;130246;1271;108840;-75
2022/06/09 14:20:36;;;;;;;11.00;9.90;;;;;;;24.80;63.20;99462.65;130193;1271;108661;-75
2022/06/09 14:23:41;;;;;;;11.80;10.70;;;;;;;24.85;63.27;99459.89;130251;1270;107030;-74
2022/06/09 14:26:49;;;;;;;11.20;10.10;;;;;;;24.92;63.17;99467.94;130176;1271;108823;-74
2022/06/09 14:29:54;;;;;;;10.30;9.40;;;;;;;25.00;62.99;99472.50;130344;1270;108701;-73
2022/06/09 14:32:59;;;;;;;10.50;9.50;;;;;;;25.02;62.68;99476.70;130234;1270;108859;-75
2022/06/09 14:36:05;;;;;;;9.90;9.00;;;;;;;24.98;62.76;99472.06;130220;1270;108022;-75
2022/06/09 14:39:15;;;;;;;10.40;9.40;;;;;;;24.96;62.86;99471.56;130323;1270;108487;-74
2022/06/09 14:42:21;;;;;;;19.20;13.90;;;;;;;24.91;62.60;99469.90;130317;1271;108677;-72